<?xml version='1.0' encoding='UTF-8'?>
<gpx xmlns="http://www.topografix.com/GPX/1/1" creator="www.balnam.be" version="1.1" xmlns:xsi="http://www.w3.org/2001/XMLSchema-instance" xsi:schemaLocation="http://www.topografix.com/GPX/1/1 http://www.topografix.com/GPX/1/1/gpx.xsd">
<trk>
<name>nononi16</name>
<cmt>v</cmt>
<desc>Onhaye Chemin n°i16 Melin</desc>
<link href="https://chemins.be/onhaye/chemin/i16"/><trkseg>
<trkpt lat="50.251167" lon="4.864523"><time>2026-05-03T06:14:51Z</time></trkpt>
<trkpt lat="50.250764" lon="4.864672"><time>2026-05-03T06:24:51Z</time></trkpt>
<trkpt lat="50.250406" lon="4.864981"><time>2026-05-03T06:34:51Z</time></trkpt>
<trkpt lat="50.250062" lon="4.865233"><time>2026-05-03T06:44:51Z</time></trkpt>
<trkpt lat="50.249835" lon="4.865553"><time>2026-05-03T06:54:51Z</time></trkpt>
<trkpt lat="50.249623" lon="4.866297"><time>2026-05-03T07:04:51Z</time></trkpt>
<trkpt lat="50.249462" lon="4.866778"><time>2026-05-03T07:14:51Z</time></trkpt>
<trkpt lat="50.249184" lon="4.866824"><time>2026-05-03T07:24:51Z</time></trkpt>
<trkpt lat="50.248788" lon="4.865942"><time>2026-05-03T07:34:51Z</time></trkpt>
<trkpt lat="50.248649" lon="4.865576"><time>2026-05-03T07:44:51Z</time></trkpt>
<trkpt lat="50.248357" lon="4.865542"><time>2026-05-03T07:54:51Z</time></trkpt>
<trkpt lat="50.248057" lon="4.865633"><time>2026-05-03T08:04:51Z</time></trkpt>
<trkpt lat="50.247918" lon="4.865805"><time>2026-05-03T08:14:51Z</time></trkpt>
<trkpt lat="50.247874" lon="4.866412"><time>2026-05-03T08:24:51Z</time></trkpt>
<trkpt lat="50.248005" lon="4.867384"><time>2026-05-03T08:34:51Z</time></trkpt>
<trkpt lat="50.247991" lon="4.867670"><time>2026-05-03T08:44:51Z</time></trkpt>
<trkpt lat="50.247837" lon="4.867934"><time>2026-05-03T08:54:51Z</time></trkpt>
<trkpt lat="50.247844" lon="4.868174"><time>2026-05-03T09:04:51Z</time></trkpt>
<trkpt lat="50.248174" lon="4.869994"><time>2026-05-03T09:14:51Z</time></trkpt>
<trkpt lat="50.248071" lon="4.870188"><time>2026-05-03T09:24:51Z</time></trkpt>
<trkpt lat="50.247757" lon="4.870291"><time>2026-05-03T09:34:51Z</time></trkpt>
<trkpt lat="50.247420" lon="4.870417"><time>2026-05-03T09:44:51Z</time></trkpt>
<trkpt lat="50.247076" lon="4.870692"><time>2026-05-03T09:54:51Z</time></trkpt>
<trkpt lat="50.246630" lon="4.871012"><time>2026-05-03T10:04:51Z</time></trkpt>
<trkpt lat="50.246381" lon="4.871230"><time>2026-05-03T10:14:51Z</time></trkpt>
<trkpt lat="50.246366" lon="4.871607"><time>2026-05-03T10:24:51Z</time></trkpt>
<trkpt lat="50.246322" lon="4.872019"><time>2026-05-03T10:34:51Z</time></trkpt>
<trkpt lat="50.246234" lon="4.872202"><time>2026-05-03T10:44:51Z</time></trkpt>
<trkpt lat="50.245824" lon="4.872351"><time>2026-05-03T10:54:51Z</time></trkpt>
<trkpt lat="50.244880" lon="4.872694"><time>2026-05-03T11:04:51Z</time></trkpt>
</trkseg>
</trk>
</gpx>